Felt, Oklahoma
Current Conditions -  °F | °C
As of 2:55 PM on Thursday 23 Oct 2014 (Local Time) from KCAO Reporting Station
Scattered Clouds Scattered Clouds  
Wind Chill: 74°   Ceiling: Unl
Heat Index: 74°   Visibility: 10mi
Dew Point: 47°   Wind: 8mph
Humidity: 38%   Direction: 20°NNE
Pressure: 30.14"   Gusts: NA
Location:  36.57°N, 102.79°W
Report Text: KCAO 231955Z AUTO 02007KT 10SM SCT050 23/08 A3014 RMK AO2 SLP155 T02330083
Loading
Personal Weather Stations






























Interactive Weather Map
Tropical Storm Tracking
New forecast layout! Learn more

10-Day Weather Forecast

Advertisements
Track Severe Weather on mobile